sensor_id;sensor_type;location;lat;lon;timestamp;temperature;humidity
29803;DHT22;16702;50.898;4.662;2023-12-04T00:01:46;4.00;99.90
29803;DHT22;16702;50.898;4.662;2023-12-04T00:04:17;3.90;99.90
29803;DHT22;16702;50.898;4.662;2023-12-04T00:06:47;4.00;99.90
29803;DHT22;16702;50.898;4.662;2023-12-04T00:09:23;3.90;99.90
29803;DHT22;16702;50.898;4.662;2023-12-04T00:11:54;3.90;99.90
29803;DHT22;16702;50.898;4.662;2023-12-04T00:14:25;4.00;99.90
29803;DHT22;16702;50.898;4.662;2023-12-04T00:16:56;4.10;99.90
29803;DHT22;16702;50.898;4.662;2023-12-04T00:19:26;4.00;99.90
29803;DHT22;16702;50.898;4.662;2023-12-04T00:21:57;4.00;99.90
29803;DHT22;16702;50.898;4.662;2023-12-04T00:24:30;4.00;99.90
29803;DHT22;16702;50.898;4.662;2023-12-04T00:27:01;4.00;99.90
29803;DHT22;16702;50.898;4.662;2023-12-04T00:29:31;4.00;99.90
29803;DHT22;16702;50.898;4.662;2023-12-04T00:32:02;4.00;99.90
29803;DHT22;16702;50.898;4.662;2023-12-04T00:34:33;4.00;99.90
29803;DHT22;16702;50.898;4.662;2023-12-04T00:37:03;4.00;99.90
29803;DHT22;16702;50.898;4.662;2023-12-04T00:39:37;4.00;99.90
29803;DHT22;16702;50.898;4.662;2023-12-04T00:42:07;4.00;99.90
29803;DHT22;16702;50.898;4.662;2023-12-04T00:44:38;4.00;99.90
29803;DHT22;16702;50.898;4.662;2023-12-04T00:47:08;4.00;99.90
29803;DHT22;16702;50.898;4.662;2023-12-04T00:49:39;4.00;99.90
29803;DHT22;16702;50.898;4.662;2023-12-04T00:52:10;4.00;99.90
29803;DHT22;16702;50.898;4.662;2023-12-04T00:54:43;4.00;99.90
29803;DHT22;16702;50.898;4.662;2023-12-04T00:57:13;4.00;99.90
29803;DHT22;16702;50.898;4.662;2023-12-04T00:59:44;4.00;99.90
29803;DHT22;16702;50.898;4.662;2023-12-04T01:02:14;4.00;99.90
29803;DHT22;16702;50.898;4.662;2023-12-04T01:04:45;4.00;99.90
29803;DHT22;16702;50.898;4.662;2023-12-04T01:07:15;4.00;99.90
29803;DHT22;16702;50.898;4.662;2023-12-04T01:09:48;4.10;99.90
29803;DHT22;16702;50.898;4.662;2023-12-04T01:12:19;4.00;99.90
29803;DHT22;16702;50.898;4.662;2023-12-04T01:14:49;4.00;99.90
29803;DHT22;16702;50.898;4.662;2023-12-04T01:17:20;4.00;99.90
29803;DHT22;16702;50.898;4.662;2023-12-04T01:19:51;4.00;99.90
29803;DHT22;16702;50.898;4.662;2023-12-04T01:22:21;4.00;99.90
29803;DHT22;16702;50.898;4.662;2023-12-04T01:24:54;4.00;99.90
29803;DHT22;16702;50.898;4.662;2023-12-04T01:27:25;4.10;99.90
29803;DHT22;16702;50.898;4.662;2023-12-04T01:29:56;4.10;99.90
29803;DHT22;16702;50.898;4.662;2023-12-04T01:32:26;4.10;99.90
29803;DHT22;16702;50.898;4.662;2023-12-04T01:34:57;4.20;99.90
29803;DHT22;16702;50.898;4.662;2023-12-04T01:37:28;4.10;99.90
29803;DHT22;16702;50.898;4.662;2023-12-04T01:40:01;4.10;99.90
29803;DHT22;16702;50.898;4.662;2023-12-04T01:42:34;4.10;99.90
29803;DHT22;16702;50.898;4.662;2023-12-04T01:45:06;4.10;99.90
29803;DHT22;16702;50.898;4.662;2023-12-04T01:47:37;4.10;99.90
29803;DHT22;16702;50.898;4.662;2023-12-04T01:50:08;4.10;99.90
29803;DHT22;16702;50.898;4.662;2023-12-04T01:52:39;4.10;99.90
29803;DHT22;16702;50.898;4.662;2023-12-04T01:55:13;4.30;99.90
29803;DHT22;16702;50.898;4.662;2023-12-04T01:57:45;4.10;99.90
29803;DHT22;16702;50.898;4.662;2023-12-04T02:00:17;4.10;99.90
29803;DHT22;16702;50.898;4.662;2023-12-04T02:02:48;4.10;99.90
29803;DHT22;16702;50.898;4.662;2023-12-04T02:05:19;4.20;99.90
29803;DHT22;16702;50.898;4.662;2023-12-04T02:07:51;4.10;99.90
29803;DHT22;16702;50.898;4.662;2023-12-04T02:10:25;4.20;99.90
29803;DHT22;16702;50.898;4.662;2023-12-04T02:12:56;4.10;99.90
29803;DHT22;16702;50.898;4.662;2023-12-04T02:15:26;4.20;99.90
29803;DHT22;16702;50.898;4.662;2023-12-04T02:17:58;4.10;99.90
29803;DHT22;16702;50.898;4.662;2023-12-04T02:20:32;4.10;99.90
29803;DHT22;16702;50.898;4.662;2023-12-04T02:23:03;4.10;99.90
29803;DHT22;16702;50.898;4.662;2023-12-04T02:25:36;4.10;99.90
29803;DHT22;16702;50.898;4.662;2023-12-04T02:28:09;4.30;99.90
29803;DHT22;16702;50.898;4.662;2023-12-04T02:30:41;4.20;99.90
29803;DHT22;16702;50.898;4.662;2023-12-04T02:33:13;4.20;99.90
29803;DHT22;16702;50.898;4.662;2023-12-04T02:35:46;4.20;99.90
29803;DHT22;16702;50.898;4.662;2023-12-04T02:38:18;4.20;99.90
29803;DHT22;16702;50.898;4.662;2023-12-04T02:40:51;4.20;99.90
29803;DHT22;16702;50.898;4.662;2023-12-04T02:43:22;4.20;99.90
29803;DHT22;16702;50.898;4.662;2023-12-04T02:45:52;4.20;99.90
29803;DHT22;16702;50.898;4.662;2023-12-04T02:48:23;4.40;99.90
29803;DHT22;16702;50.898;4.662;2023-12-04T02:50:53;4.20;99.90
29803;DHT22;16702;50.898;4.662;2023-12-04T02:53:24;4.20;99.90
29803;DHT22;16702;50.898;4.662;2023-12-04T02:55:59;4.20;99.90
29803;DHT22;16702;50.898;4.662;2023-12-04T02:58:29;4.20;99.90
29803;DHT22;16702;50.898;4.662;2023-12-04T03:01:01;4.20;99.90
29803;DHT22;16702;50.898;4.662;2023-12-04T03:03:32;4.10;99.90
29803;DHT22;16702;50.898;4.662;2023-12-04T03:06:03;4.20;99.90
29803;DHT22;16702;50.898;4.662;2023-12-04T03:08:33;4.20;99.90
29803;DHT22;16702;50.898;4.662;2023-12-04T03:11:07;4.20;99.90
29803;DHT22;16702;50.898;4.662;2023-12-04T03:13:38;4.20;99.90
29803;DHT22;16702;50.898;4.662;2023-12-04T03:16:15;4.10;99.90
29803;DHT22;16702;50.898;4.662;2023-12-04T03:18:46;4.20;99.90
29803;DHT22;16702;50.898;4.662;2023-12-04T03:21:16;4.20;99.90
29803;DHT22;16702;50.898;4.662;2023-12-04T03:23:47;4.20;99.90
29803;DHT22;16702;50.898;4.662;2023-12-04T03:26:20;4.20;99.90
29803;DHT22;16702;50.898;4.662;2023-12-04T03:28:51;4.20;99.90
29803;DHT22;16702;50.898;4.662;2023-12-04T03:31:22;4.20;99.90
29803;DHT22;16702;50.898;4.662;2023-12-04T03:33:53;4.30;99.90
29803;DHT22;16702;50.898;4.662;2023-12-04T03:36:24;4.20;99.90
29803;DHT22;16702;50.898;4.662;2023-12-04T03:38:56;4.20;99.90
29803;DHT22;16702;50.898;4.662;2023-12-04T03:41:29;4.20;99.90
29803;DHT22;16702;50.898;4.662;2023-12-04T03:43:59;4.20;99.90
29803;DHT22;16702;50.898;4.662;2023-12-04T03:46:30;4.20;99.90
29803;DHT22;16702;50.898;4.662;2023-12-04T03:49:00;4.20;99.90
29803;DHT22;16702;50.898;4.662;2023-12-04T03:51:31;4.30;99.90
29803;DHT22;16702;50.898;4.662;2023-12-04T03:54:02;4.20;99.90
29803;DHT22;16702;50.898;4.662;2023-12-04T03:56:35;4.30;99.90
29803;DHT22;16702;50.898;4.662;2023-12-04T03:59:05;4.20;99.90
29803;DHT22;16702;50.898;4.662;2023-12-04T04:01:36;4.40;99.90
29803;DHT22;16702;50.898;4.662;2023-12-04T04:04:06;4.30;99.90
29803;DHT22;16702;50.898;4.662;2023-12-04T04:06:36;4.30;99.90
29803;DHT22;16702;50.898;4.662;2023-12-04T04:09:07;4.30;99.90
29803;DHT22;16702;50.898;4.662;2023-12-04T04:11:40;4.30;99.90
29803;DHT22;16702;50.898;4.662;2023-12-04T04:14:11;4.30;99.90
29803;DHT22;16702;50.898;4.662;2023-12-04T04:16:41;4.30;99.90
29803;DHT22;16702;50.898;4.662;2023-12-04T04:19:11;4.40;99.90
29803;DHT22;16702;50.898;4.662;2023-12-04T04:21:42;4.30;99.90
29803;DHT22;16702;50.898;4.662;2023-12-04T04:24:12;4.40;99.90
29803;DHT22;16702;50.898;4.662;2023-12-04T04:26:46;4.40;99.90
29803;DHT22;16702;50.898;4.662;2023-12-04T04:29:16;4.50;99.90
29803;DHT22;16702;50.898;4.662;2023-12-04T04:31:46;4.40;99.90
29803;DHT22;16702;50.898;4.662;2023-12-04T04:34:18;4.40;99.90
29803;DHT22;16702;50.898;4.662;2023-12-04T04:36:48;4.40;99.90
29803;DHT22;16702;50.898;4.662;2023-12-04T04:39:19;4.50;99.90
29803;DHT22;16702;50.898;4.662;2023-12-04T04:41:52;4.40;99.90
29803;DHT22;16702;50.898;4.662;2023-12-04T04:44:22;4.40;99.90
29803;DHT22;16702;50.898;4.662;2023-12-04T04:46:54;4.40;99.90
29803;DHT22;16702;50.898;4.662;2023-12-04T04:49:24;4.60;99.90
29803;DHT22;16702;50.898;4.662;2023-12-04T04:51:55;4.40;99.90
29803;DHT22;16702;50.898;4.662;2023-12-04T04:54:25;4.50;99.90
29803;DHT22;16702;50.898;4.662;2023-12-04T04:56:58;4.40;99.90
29803;DHT22;16702;50.898;4.662;2023-12-04T04:59:29;4.60;99.90
29803;DHT22;16702;50.898;4.662;2023-12-04T05:01:59;4.50;99.90
29803;DHT22;16702;50.898;4.662;2023-12-04T05:04:30;4.50;99.90
29803;DHT22;16702;50.898;4.662;2023-12-04T05:07:01;4.50;99.90
29803;DHT22;16702;50.898;4.662;2023-12-04T05:09:31;4.50;99.90
29803;DHT22;16702;50.898;4.662;2023-12-04T05:12:05;4.50;99.90
29803;DHT22;16702;50.898;4.662;2023-12-04T05:14:35;4.50;99.90
29803;DHT22;16702;50.898;4.662;2023-12-04T05:17:06;4.60;99.90
29803;DHT22;16702;50.898;4.662;2023-12-04T05:19:36;4.60;99.90
29803;DHT22;16702;50.898;4.662;2023-12-04T05:22:08;4.50;99.90
29803;DHT22;16702;50.898;4.662;2023-12-04T05:24:38;4.50;99.90
29803;DHT22;16702;50.898;4.662;2023-12-04T05:27:11;4.50;99.90
29803;DHT22;16702;50.898;4.662;2023-12-04T05:29:42;4.50;99.90
29803;DHT22;16702;50.898;4.662;2023-12-04T05:32:13;4.60;99.90
29803;DHT22;16702;50.898;4.662;2023-12-04T05:34:43;4.60;99.90
29803;DHT22;16702;50.898;4.662;2023-12-04T05:37:14;4.70;99.90
29803;DHT22;16702;50.898;4.662;2023-12-04T05:39:44;4.60;99.90
29803;DHT22;16702;50.898;4.662;2023-12-04T05:42:17;4.80;99.90
29803;DHT22;16702;50.898;4.662;2023-12-04T05:44:48;4.60;99.90
29803;DHT22;16702;50.898;4.662;2023-12-04T05:47:16;4.60;99.90
29803;DHT22;16702;50.898;4.662;2023-12-04T05:49:46;4.60;99.90
29803;DHT22;16702;50.898;4.662;2023-12-04T05:52:17;4.70;99.90
29803;DHT22;16702;50.898;4.662;2023-12-04T05:54:47;4.70;99.90
29803;DHT22;16702;50.898;4.662;2023-12-04T05:57:20;4.70;99.90
29803;DHT22;16702;50.898;4.662;2023-12-04T05:59:50;4.70;99.90
29803;DHT22;16702;50.898;4.662;2023-12-04T06:02:21;4.70;99.90
29803;DHT22;16702;50.898;4.662;2023-12-04T06:04:51;4.70;99.90
29803;DHT22;16702;50.898;4.662;2023-12-04T06:07:22;4.70;99.90
29803;DHT22;16702;50.898;4.662;2023-12-04T06:09:52;4.70;99.90
29803;DHT22;16702;50.898;4.662;2023-12-04T06:12:26;4.80;99.90
29803;DHT22;16702;50.898;4.662;2023-12-04T06:14:56;4.70;99.90
29803;DHT22;16702;50.898;4.662;2023-12-04T06:17:28;4.70;99.90
29803;DHT22;16702;50.898;4.662;2023-12-04T06:19:58;4.70;99.90
29803;DHT22;16702;50.898;4.662;2023-12-04T06:22:29;4.70;99.90
29803;DHT22;16702;50.898;4.662;2023-12-04T06:25:00;4.70;99.90
29803;DHT22;16702;50.898;4.662;2023-12-04T06:27:34;4.70;99.90
29803;DHT22;16702;50.898;4.662;2023-12-04T06:30:07;4.70;99.90
29803;DHT22;16702;50.898;4.662;2023-12-04T06:32:38;4.80;99.90
29803;DHT22;16702;50.898;4.662;2023-12-04T06:35:10;4.80;99.90
29803;DHT22;16702;50.898;4.662;2023-12-04T06:37:48;4.80;99.90
29803;DHT22;16702;50.898;4.662;2023-12-04T06:40:20;4.70;99.90
29803;DHT22;16702;50.898;4.662;2023-12-04T06:42:54;4.80;99.90
29803;DHT22;16702;50.898;4.662;2023-12-04T06:45:25;4.90;99.90
29803;DHT22;16702;50.898;4.662;2023-12-04T06:47:54;4.80;99.90
29803;DHT22;16702;50.898;4.662;2023-12-04T06:50:25;4.80;99.90
29803;DHT22;16702;50.898;4.662;2023-12-04T06:52:55;4.80;99.90
29803;DHT22;16702;50.898;4.662;2023-12-04T06:55:26;4.80;99.90
29803;DHT22;16702;50.898;4.662;2023-12-04T06:57:59;4.80;99.90
29803;DHT22;16702;50.898;4.662;2023-12-04T07:00:30;4.80;99.90
29803;DHT22;16702;50.898;4.662;2023-12-04T07:03:00;4.80;99.90
29803;DHT22;16702;50.898;4.662;2023-12-04T07:05:31;4.80;99.90
29803;DHT22;16702;50.898;4.662;2023-12-04T07:08:02;4.80;99.90
29803;DHT22;16702;50.898;4.662;2023-12-04T07:10:32;4.80;99.90
29803;DHT22;16702;50.898;4.662;2023-12-04T07:13:05;4.90;99.90
29803;DHT22;16702;50.898;4.662;2023-12-04T07:15:36;4.80;99.90
29803;DHT22;16702;50.898;4.662;2023-12-04T07:18:06;4.80;99.90
29803;DHT22;16702;50.898;4.662;2023-12-04T07:20:37;4.80;99.90
29803;DHT22;16702;50.898;4.662;2023-12-04T07:23:08;4.80;99.90
29803;DHT22;16702;50.898;4.662;2023-12-04T07:25:38;4.80;99.90
29803;DHT22;16702;50.898;4.662;2023-12-04T07:28:11;4.80;99.90
29803;DHT22;16702;50.898;4.662;2023-12-04T07:30:41;4.80;99.90
29803;DHT22;16702;50.898;4.662;2023-12-04T07:33:12;4.80;99.90
29803;DHT22;16702;50.898;4.662;2023-12-04T07:35:43;4.80;99.90
29803;DHT22;16702;50.898;4.662;2023-12-04T07:38:14;4.80;99.90
29803;DHT22;16702;50.898;4.662;2023-12-04T07:40:45;4.80;99.90
29803;DHT22;16702;50.898;4.662;2023-12-04T07:43:18;4.90;99.90
29803;DHT22;16702;50.898;4.662;2023-12-04T07:45:48;4.80;99.90
29803;DHT22;16702;50.898;4.662;2023-12-04T07:48:19;4.80;99.90
29803;DHT22;16702;50.898;4.662;2023-12-04T07:50:53;4.80;99.90
29803;DHT22;16702;50.898;4.662;2023-12-04T07:53:25;4.80;99.90
29803;DHT22;16702;50.898;4.662;2023-12-04T07:55:56;4.80;99.90
29803;DHT22;16702;50.898;4.662;2023-12-04T07:58:29;4.70;99.90
29803;DHT22;16702;50.898;4.662;2023-12-04T08:01:00;4.80;99.90
29803;DHT22;16702;50.898;4.662;2023-12-04T08:03:31;4.80;99.90
29803;DHT22;16702;50.898;4.662;2023-12-04T08:06:01;4.70;99.90
29803;DHT22;16702;50.898;4.662;2023-12-04T08:08:33;4.80;99.90
29803;DHT22;16702;50.898;4.662;2023-12-04T08:11:04;4.90;99.90
29803;DHT22;16702;50.898;4.662;2023-12-04T08:13:38;4.80;99.90
29803;DHT22;16702;50.898;4.662;2023-12-04T08:16:13;4.80;99.90
29803;DHT22;16702;50.898;4.662;2023-12-04T08:18:45;4.80;99.90
29803;DHT22;16702;50.898;4.662;2023-12-04T08:21:15;4.80;99.90
29803;DHT22;16702;50.898;4.662;2023-12-04T08:23:46;4.80;99.90
29803;DHT22;16702;50.898;4.662;2023-12-04T08:26:21;4.80;99.90
29803;DHT22;16702;50.898;4.662;2023-12-04T08:28:54;4.80;99.90
29803;DHT22;16702;50.898;4.662;2023-12-04T08:31:25;4.80;99.90
29803;DHT22;16702;50.898;4.662;2023-12-04T08:33:55;4.80;99.90
29803;DHT22;16702;50.898;4.662;2023-12-04T08:36:26;4.80;99.90
29803;DHT22;16702;50.898;4.662;2023-12-04T08:39:12;4.80;99.90
29803;DHT22;16702;50.898;4.662;2023-12-04T08:41:45;4.80;99.90
29803;DHT22;16702;50.898;4.662;2023-12-04T08:44:30;4.80;99.90
29803;DHT22;16702;50.898;4.662;2023-12-04T08:47:00;4.80;99.90
29803;DHT22;16702;50.898;4.662;2023-12-04T08:49:31;4.80;99.90
29803;DHT22;16702;50.898;4.662;2023-12-04T08:52:12;4.80;99.90
29803;DHT22;16702;50.898;4.662;2023-12-04T08:54:43;4.90;99.90
29803;DHT22;16702;50.898;4.662;2023-12-04T08:57:14;4.90;99.90
29803;DHT22;16702;50.898;4.662;2023-12-04T08:59:47;4.80;99.90
29803;DHT22;16702;50.898;4.662;2023-12-04T09:02:17;4.90;99.90
29803;DHT22;16702;50.898;4.662;2023-12-04T09:04:48;4.90;99.90
29803;DHT22;16702;50.898;4.662;2023-12-04T09:07:19;4.90;99.90
29803;DHT22;16702;50.898;4.662;2023-12-04T09:09:53;4.90;99.90
29803;DHT22;16702;50.898;4.662;2023-12-04T09:12:23;4.90;99.90
29803;DHT22;16702;50.898;4.662;2023-12-04T09:14:56;4.90;99.90
29803;DHT22;16702;50.898;4.662;2023-12-04T09:17:27;4.90;99.90
29803;DHT22;16702;50.898;4.662;2023-12-04T09:20:07;4.80;99.90
29803;DHT22;16702;50.898;4.662;2023-12-04T09:22:38;4.80;99.90
29803;DHT22;16702;50.898;4.662;2023-12-04T09:25:12;4.90;99.90
29803;DHT22;16702;50.898;4.662;2023-12-04T09:27:42;4.90;99.90
29803;DHT22;16702;50.898;4.662;2023-12-04T09:30:16;4.90;99.90
29803;DHT22;16702;50.898;4.662;2023-12-04T09:32:46;4.80;99.90
29803;DHT22;16702;50.898;4.662;2023-12-04T09:35:17;4.80;99.90
29803;DHT22;16702;50.898;4.662;2023-12-04T09:37:47;4.80;99.90
29803;DHT22;16702;50.898;4.662;2023-12-04T09:40:18;4.80;99.90
29803;DHT22;16702;50.898;4.662;2023-12-04T09:42:49;4.80;99.90
29803;DHT22;16702;50.898;4.662;2023-12-04T09:45:24;4.80;99.90
29803;DHT22;16702;50.898;4.662;2023-12-04T09:47:55;4.80;99.90
29803;DHT22;16702;50.898;4.662;2023-12-04T09:50:26;4.80;99.90
29803;DHT22;16702;50.898;4.662;2023-12-04T09:53:00;4.90;99.90
29803;DHT22;16702;50.898;4.662;2023-12-04T09:55:31;4.80;99.90
29803;DHT22;16702;50.898;4.662;2023-12-04T09:58:02;4.70;99.90
29803;DHT22;16702;50.898;4.662;2023-12-04T10:00:35;4.80;99.90
29803;DHT22;16702;50.898;4.662;2023-12-04T10:03:07;4.80;99.90
29803;DHT22;16702;50.898;4.662;2023-12-04T10:05:38;4.80;99.90
29803;DHT22;16702;50.898;4.662;2023-12-04T10:08:08;4.80;99.90
29803;DHT22;16702;50.898;4.662;2023-12-04T10:10:39;4.80;99.90
29803;DHT22;16702;50.898;4.662;2023-12-04T10:13:09;4.80;99.90
29803;DHT22;16702;50.898;4.662;2023-12-04T10:16:03;4.70;99.90
29803;DHT22;16702;50.898;4.662;2023-12-04T10:18:34;4.80;99.90
29803;DHT22;16702;50.898;4.662;2023-12-04T10:21:07;4.80;99.90
29803;DHT22;16702;50.898;4.662;2023-12-04T10:23:45;4.80;99.90
29803;DHT22;16702;50.898;4.662;2023-12-04T10:26:16;4.70;99.90
29803;DHT22;16702;50.898;4.662;2023-12-04T10:28:59;4.90;99.90
29803;DHT22;16702;50.898;4.662;2023-12-04T10:31:35;4.70;99.90
29803;DHT22;16702;50.898;4.662;2023-12-04T10:34:05;4.70;99.90
29803;DHT22;16702;50.898;4.662;2023-12-04T10:36:38;4.80;99.90
29803;DHT22;16702;50.898;4.662;2023-12-04T10:39:08;4.80;99.90
29803;DHT22;16702;50.898;4.662;2023-12-04T10:41:41;4.90;99.90
29803;DHT22;16702;50.898;4.662;2023-12-04T10:44:16;4.80;99.90
29803;DHT22;16702;50.898;4.662;2023-12-04T10:46:50;4.80;99.90
29803;DHT22;16702;50.898;4.662;2023-12-04T10:49:21;4.80;99.90
29803;DHT22;16702;50.898;4.662;2023-12-04T10:51:54;4.70;99.90
29803;DHT22;16702;50.898;4.662;2023-12-04T10:54:25;4.70;99.90
29803;DHT22;16702;50.898;4.662;2023-12-04T10:57:00;4.70;99.90
29803;DHT22;16702;50.898;4.662;2023-12-04T10:59:36;4.70;99.90
29803;DHT22;16702;50.898;4.662;2023-12-04T11:02:13;4.70;99.90
29803;DHT22;16702;50.898;4.662;2023-12-04T11:04:51;4.80;99.90
29803;DHT22;16702;50.898;4.662;2023-12-04T11:07:25;4.70;99.90
29803;DHT22;16702;50.898;4.662;2023-12-04T11:10:19;4.70;99.90
29803;DHT22;16702;50.898;4.662;2023-12-04T11:13:00;4.50;99.90
29803;DHT22;16702;50.898;4.662;2023-12-04T11:15:37;4.60;99.90
29803;DHT22;16702;50.898;4.662;2023-12-04T11:18:14;4.60;99.90
29803;DHT22;16702;50.898;4.662;2023-12-04T11:20:51;4.60;99.90
29803;DHT22;16702;50.898;4.662;2023-12-04T11:23:23;4.60;99.90
29803;DHT22;16702;50.898;4.662;2023-12-04T11:25:55;4.60;99.90
29803;DHT22;16702;50.898;4.662;2023-12-04T11:28:26;4.60;99.90
29803;DHT22;16702;50.898;4.662;2023-12-04T11:30:57;4.60;99.90
29803;DHT22;16702;50.898;4.662;2023-12-04T11:33:34;4.60;99.90
29803;DHT22;16702;50.898;4.662;2023-12-04T11:36:10;4.70;99.90
29803;DHT22;16702;50.898;4.662;2023-12-04T11:38:44;4.70;99.90
29803;DHT22;16702;50.898;4.662;2023-12-04T11:41:17;4.60;99.90
29803;DHT22;16702;50.898;4.662;2023-12-04T11:43:56;4.60;99.90
29803;DHT22;16702;50.898;4.662;2023-12-04T11:46:27;4.60;99.90
29803;DHT22;16702;50.898;4.662;2023-12-04T11:49:31;4.50;99.90
29803;DHT22;16702;50.898;4.662;2023-12-04T11:52:04;4.60;99.90
29803;DHT22;16702;50.898;4.662;2023-12-04T11:54:56;4.70;99.90
29803;DHT22;16702;50.898;4.662;2023-12-04T11:57:27;4.60;99.90
29803;DHT22;16702;50.898;4.662;2023-12-04T12:00:13;4.60;99.90
29803;DHT22;16702;50.898;4.662;2023-12-04T12:02:48;4.60;99.90
29803;DHT22;16702;50.898;4.662;2023-12-04T12:05:51;4.50;99.90
29803;DHT22;16702;50.898;4.662;2023-12-04T12:08:23;4.50;99.90
29803;DHT22;16702;50.898;4.662;2023-12-04T12:10:54;4.60;99.90
29803;DHT22;16702;50.898;4.662;2023-12-04T12:13:26;4.60;99.90
29803;DHT22;16702;50.898;4.662;2023-12-04T12:15:56;4.60;99.90
29803;DHT22;16702;50.898;4.662;2023-12-04T12:18:29;4.70;99.90
29803;DHT22;16702;50.898;4.662;2023-12-04T12:21:03;4.60;99.90
29803;DHT22;16702;50.898;4.662;2023-12-04T12:23:34;4.60;99.90
29803;DHT22;16702;50.898;4.662;2023-12-04T12:26:05;4.60;99.90
29803;DHT22;16702;50.898;4.662;2023-12-04T12:28:39;4.60;99.90
29803;DHT22;16702;50.898;4.662;2023-12-04T12:31:09;4.70;99.90
29803;DHT22;16702;50.898;4.662;2023-12-04T12:33:40;4.70;99.90
29803;DHT22;16702;50.898;4.662;2023-12-04T12:36:14;4.60;99.90
29803;DHT22;16702;50.898;4.662;2023-12-04T12:38:45;4.70;99.90
29803;DHT22;16702;50.898;4.662;2023-12-04T12:41:17;4.70;99.90
29803;DHT22;16702;50.898;4.662;2023-12-04T12:43:51;4.70;99.90
29803;DHT22;16702;50.898;4.662;2023-12-04T12:46:23;4.80;99.90
29803;DHT22;16702;50.898;4.662;2023-12-04T12:48:54;4.80;99.90
29803;DHT22;16702;50.898;4.662;2023-12-04T12:51:28;4.80;99.90
29803;DHT22;16702;50.898;4.662;2023-12-04T12:54:00;4.80;99.90
29803;DHT22;16702;50.898;4.662;2023-12-04T12:56:31;4.80;99.90
29803;DHT22;16702;50.898;4.662;2023-12-04T12:59:01;4.80;99.90
29803;DHT22;16702;50.898;4.662;2023-12-04T13:01:33;4.80;99.90
29803;DHT22;16702;50.898;4.662;2023-12-04T13:04:04;4.80;99.90
29803;DHT22;16702;50.898;4.662;2023-12-04T13:06:37;4.80;99.90
29803;DHT22;16702;50.898;4.662;2023-12-04T13:09:08;4.80;99.90
29803;DHT22;16702;50.898;4.662;2023-12-04T13:11:45;4.80;99.90
29803;DHT22;16702;50.898;4.662;2023-12-04T13:14:16;4.90;99.90
29803;DHT22;16702;50.898;4.662;2023-12-04T13:16:47;4.90;99.90
29803;DHT22;16702;50.898;4.662;2023-12-04T13:19:18;5.00;99.90
29803;DHT22;16702;50.898;4.662;2023-12-04T13:21:51;4.90;99.90
29803;DHT22;16702;50.898;4.662;2023-12-04T13:24:21;4.90;99.90
29803;DHT22;16702;50.898;4.662;2023-12-04T13:26:53;4.90;99.90
29803;DHT22;16702;50.898;4.662;2023-12-04T13:29:24;4.90;99.90
29803;DHT22;16702;50.898;4.662;2023-12-04T13:31:54;4.90;99.90
29803;DHT22;16702;50.898;4.662;2023-12-04T13:34:25;4.90;99.90
29803;DHT22;16702;50.898;4.662;2023-12-04T13:36:58;4.90;99.90
29803;DHT22;16702;50.898;4.662;2023-12-04T13:39:29;5.10;99.90
29803;DHT22;16702;50.898;4.662;2023-12-04T13:42:16;5.00;99.90
29803;DHT22;16702;50.898;4.662;2023-12-04T13:44:59;5.00;99.90
29803;DHT22;16702;50.898;4.662;2023-12-04T13:47:31;5.00;99.90
29803;DHT22;16702;50.898;4.662;2023-12-04T13:50:03;5.00;99.90
29803;DHT22;16702;50.898;4.662;2023-12-04T13:52:36;5.00;99.90
29803;DHT22;16702;50.898;4.662;2023-12-04T13:55:08;5.00;99.90
29803;DHT22;16702;50.898;4.662;2023-12-04T13:57:44;5.00;99.90
29803;DHT22;16702;50.898;4.662;2023-12-04T14:00:28;5.00;99.90
29803;DHT22;16702;50.898;4.662;2023-12-04T14:02:58;4.90;99.90
29803;DHT22;16702;50.898;4.662;2023-12-04T14:05:33;5.00;99.90
29803;DHT22;16702;50.898;4.662;2023-12-04T14:08:07;5.00;99.90
29803;DHT22;16702;50.898;4.662;2023-12-04T14:10:38;5.00;99.90
29803;DHT22;16702;50.898;4.662;2023-12-04T14:13:09;5.00;99.90
29803;DHT22;16702;50.898;4.662;2023-12-04T14:15:40;5.00;99.90
29803;DHT22;16702;50.898;4.662;2023-12-04T14:18:10;5.10;99.90
29803;DHT22;16702;50.898;4.662;2023-12-04T14:20:41;5.10;99.90
29803;DHT22;16702;50.898;4.662;2023-12-04T14:23:15;5.10;99.90
29803;DHT22;16702;50.898;4.662;2023-12-04T14:25:47;5.10;99.90
29803;DHT22;16702;50.898;4.662;2023-12-04T14:28:18;5.10;99.90
29803;DHT22;16702;50.898;4.662;2023-12-04T14:30:58;5.10;99.90
29803;DHT22;16702;50.898;4.662;2023-12-04T14:33:29;5.10;99.90
29803;DHT22;16702;50.898;4.662;2023-12-04T14:35:59;5.10;99.90
29803;DHT22;16702;50.898;4.662;2023-12-04T14:38:33;5.10;99.90
29803;DHT22;16702;50.898;4.662;2023-12-04T14:41:06;5.10;99.90
29803;DHT22;16702;50.898;4.662;2023-12-04T14:43:37;5.10;99.90
29803;DHT22;16702;50.898;4.662;2023-12-04T14:46:07;5.10;99.90
29803;DHT22;16702;50.898;4.662;2023-12-04T14:48:38;5.20;99.90
29803;DHT22;16702;50.898;4.662;2023-12-04T14:51:10;5.20;99.90
29803;DHT22;16702;50.898;4.662;2023-12-04T14:53:44;5.20;99.90
29803;DHT22;16702;50.898;4.662;2023-12-04T14:56:18;5.20;99.90
29803;DHT22;16702;50.898;4.662;2023-12-04T14:58:55;5.20;99.90
29803;DHT22;16702;50.898;4.662;2023-12-04T15:01:47;5.10;99.90
29803;DHT22;16702;50.898;4.662;2023-12-04T15:04:36;5.10;99.90
29803;DHT22;16702;50.898;4.662;2023-12-04T15:07:39;5.20;99.90
29803;DHT22;16702;50.898;4.662;2023-12-04T15:10:30;5.20;99.90
29803;DHT22;16702;50.898;4.662;2023-12-04T15:13:15;5.20;99.90
29803;DHT22;16702;50.898;4.662;2023-12-04T15:16:07;5.20;99.90
29803;DHT22;16702;50.898;4.662;2023-12-04T15:18:55;5.30;99.90
29803;DHT22;16702;50.898;4.662;2023-12-04T15:21:56;5.20;99.90
29803;DHT22;16702;50.898;4.662;2023-12-04T15:24:26;5.30;99.90
29803;DHT22;16702;50.898;4.662;2023-12-04T15:26:57;5.30;99.90
29803;DHT22;16702;50.898;4.662;2023-12-04T15:29:28;5.30;99.90
29803;DHT22;16702;50.898;4.662;2023-12-04T15:31:57;5.30;99.90
29803;DHT22;16702;50.898;4.662;2023-12-04T15:34:28;5.30;99.90
29803;DHT22;16702;50.898;4.662;2023-12-04T15:36:56;5.30;99.90
29803;DHT22;16702;50.898;4.662;2023-12-04T15:39:26;5.30;99.90
29803;DHT22;16702;50.898;4.662;2023-12-04T15:41:57;5.30;99.90
29803;DHT22;16702;50.898;4.662;2023-12-04T15:44:27;5.30;99.90
29803;DHT22;16702;50.898;4.662;2023-12-04T15:46:55;5.30;99.90
29803;DHT22;16702;50.898;4.662;2023-12-04T15:49:28;5.30;99.90
29803;DHT22;16702;50.898;4.662;2023-12-04T15:51:56;5.30;99.90
29803;DHT22;16702;50.898;4.662;2023-12-04T15:54:26;5.30;99.90
29803;DHT22;16702;50.898;4.662;2023-12-04T15:56:59;5.30;99.90
29803;DHT22;16702;50.898;4.662;2023-12-04T15:59:32;5.30;99.90
29803;DHT22;16702;50.898;4.662;2023-12-04T16:02:00;5.30;99.90
29803;DHT22;16702;50.898;4.662;2023-12-04T16:04:31;5.40;99.90
29803;DHT22;16702;50.898;4.662;2023-12-04T16:07:03;5.40;99.90
29803;DHT22;16702;50.898;4.662;2023-12-04T16:09:34;5.40;99.90
29803;DHT22;16702;50.898;4.662;2023-12-04T16:12:08;5.40;99.90
29803;DHT22;16702;50.898;4.662;2023-12-04T16:14:39;5.40;99.90
29803;DHT22;16702;50.898;4.662;2023-12-04T16:17:09;5.40;99.90
29803;DHT22;16702;50.898;4.662;2023-12-04T16:19:40;5.50;99.90